Time;durP1;ratioP1;P1;durP2;ratioP2;P2;SDS_P1;SDS_P2;PMS_P1;PMS_P2;Temp;Humidity;BMP_temperature;BMP_pressure;BME280_temperature;BME280_humidity;BME280_pressure;Samples;Min_cycle;Max_cycle;Signal;HPM_P1;HPM_P2
2022/06/19 00:01:16;;;;;;;9.38;8.35;;;23.60;99.90;;;;;;5034388;28;20182;-66
2022/06/19 00:03:46;;;;;;;12.38;9.68;;;23.50;99.90;;;;;;5020722;28;20180;-66
2022/06/19 00:06:12;;;;;;;9.73;8.55;;;23.50;99.90;;;;;;5014240;28;20196;-66
2022/06/19 00:08:38;;;;;;;14.60;9.35;;;23.50;99.90;;;;;;5025391;28;20230;-66
2022/06/19 00:11:06;;;;;;;15.45;9.48;;;23.40;99.90;;;;;;5034100;28;20203;-66
2022/06/19 00:13:31;;;;;;;12.93;8.93;;;23.40;99.90;;;;;;5023227;28;20187;-65
2022/06/19 00:15:58;;;;;;;12.57;9.10;;;23.40;99.90;;;;;;5014211;28;20207;-66
2022/06/19 00:18:24;;;;;;;13.52;9.13;;;23.30;99.90;;;;;;5022407;28;20208;-65
2022/06/19 00:20:50;;;;;;;13.27;8.77;;;23.20;99.90;;;;;;5033960;28;20230;-65
2022/06/19 00:23:15;;;;;;;12.07;9.32;;;23.20;99.90;;;;;;5027057;28;20176;-66
2022/06/19 00:25:41;;;;;;;13.15;8.93;;;23.30;99.90;;;;;;5016649;28;20287;-66
2022/06/19 00:28:07;;;;;;;10.55;8.50;;;23.30;99.90;;;;;;5033756;28;20568;-66
2022/06/19 00:30:34;;;;;;;11.50;9.27;;;23.30;99.90;;;;;;5032345;28;20665;-66
2022/06/19 00:33:00;;;;;;;10.48;9.25;;;23.30;99.90;;;;;;5013833;28;20176;-66
2022/06/19 00:35:26;;;;;;;13.68;9.23;;;23.30;99.90;;;;;;5013443;28;20204;-66
2022/06/19 00:37:53;;;;;;;9.68;8.70;;;23.30;99.90;;;;;;5032738;28;20237;-66
2022/06/19 00:40:19;;;;;;;14.25;8.98;;;23.20;99.90;;;;;;5033876;28;20172;-63
2022/06/19 00:42:45;;;;;;;17.05;9.13;;;23.10;99.90;;;;;;5015776;28;20180;-66
2022/06/19 00:45:34;;;;;;;9.93;8.93;;;23.00;99.90;;;;;;5013435;28;20674;-66
2022/06/19 00:48:13;;;;;;;13.20;9.38;;;22.90;99.90;;;;;;5031584;28;20263;-68
2022/06/19 00:50:39;;;;;;;12.60;9.90;;;22.50;99.90;;;;;;5033261;28;20653;-65
2022/06/19 00:53:08;;;;;;;18.25;11.23;;;22.20;99.90;;;;;;5031679;28;20190;-67
2022/06/19 00:55:40;;;;;;;14.02;10.65;;;22.10;99.90;;;;;;5032944;28;20610;-65
2022/06/19 00:58:19;;;;;;;13.85;11.05;;;22.00;99.90;;;;;;5014251;28;20191;-65
2022/06/19 01:00:53;;;;;;;16.10;10.70;;;22.00;99.90;;;;;;5013257;28;20180;-64
2022/06/19 01:03:22;;;;;;;15.23;10.88;;;22.00;99.90;;;;;;5013379;28;20184;-65
2022/06/19 01:05:49;;;;;;;15.88;10.65;;;21.90;99.90;;;;;;5013165;28;20204;-67
2022/06/19 01:08:15;;;;;;;15.25;11.90;;;21.80;99.90;;;;;;5031733;28;20207;-66
2022/06/19 01:10:44;;;;;;;13.57;10.77;;;21.70;99.90;;;;;;5033133;28;20175;-66
2022/06/19 01:13:12;;;;;;;12.98;10.85;;;21.60;99.90;;;;;;5014887;28;20276;-66
2022/06/19 01:15:39;;;;;;;13.95;11.05;;;21.60;99.90;;;;;;5023802;28;20214;-66
2022/06/19 01:18:08;;;;;;;11.57;10.48;;;21.70;99.90;;;;;;5032829;28;20167;-66
2022/06/19 01:20:35;;;;;;;16.33;10.75;;;21.80;99.90;;;;;;5030338;28;20175;-66
2022/06/19 01:23:21;;;;;;;18.25;11.15;;;21.80;99.90;;;;;;5027538;28;20195;-65
2022/06/19 01:25:49;;;;;;;13.65;10.57;;;21.80;99.90;;;;;;5012941;28;20731;-65
2022/06/19 01:28:45;;;;;;;14.23;10.80;;;21.80;99.90;;;;;;5019336;28;20218;-65
2022/06/19 01:31:17;;;;;;;17.23;11.68;;;21.90;99.90;;;;;;5032625;28;20172;-65
2022/06/19 01:33:52;;;;;;;15.85;10.55;;;21.90;99.90;;;;;;5022112;28;20176;-65
2022/06/19 01:36:20;;;;;;;12.15;10.90;;;21.90;99.90;;;;;;5012879;28;20572;-65
2022/06/19 01:38:49;;;;;;;14.75;11.52;;;21.90;99.90;;;;;;5022203;28;20186;-64
2022/06/19 01:41:31;;;;;;;13.57;10.55;;;21.90;99.90;;;;;;5032306;28;20183;-64
2022/06/19 01:43:57;;;;;;;13.20;11.45;;;22.00;99.90;;;;;;5021182;28;20591;-66
2022/06/19 01:46:26;;;;;;;11.85;10.32;;;22.00;99.90;;;;;;5012342;28;20203;-65
2022/06/19 01:48:53;;;;;;;13.65;10.15;;;22.00;99.90;;;;;;5025334;28;20180;-65
2022/06/19 01:51:18;;;;;;;16.52;9.73;;;22.00;99.90;;;;;;5032232;28;20207;-66
2022/06/19 01:53:55;;;;;;;12.32;10.65;;;21.90;99.90;;;;;;5028190;28;20171;-66
2022/06/19 01:56:22;;;;;;;14.98;10.73;;;21.90;99.90;;;;;;5032144;28;20195;-66
2022/06/19 01:58:51;;;;;;;10.65;9.70;;;21.90;99.90;;;;;;5020424;28;20326;-66
2022/06/19 02:01:17;;;;;;;14.75;9.98;;;22.10;99.90;;;;;;5012352;28;20168;-66
2022/06/19 02:03:50;;;;;;;11.68;10.52;;;22.10;99.90;;;;;;5022839;28;20222;-66
2022/06/19 02:06:26;;;;;;;16.92;10.95;;;22.00;99.90;;;;;;5031952;28;20199;-67
2022/06/19 02:08:52;;;;;;;11.93;9.77;;;22.00;99.90;;;;;;5019763;28;20215;-67
2022/06/19 02:11:18;;;;;;;12.18;11.00;;;21.90;99.90;;;;;;5012248;28;20172;-67
2022/06/19 02:13:45;;;;;;;17.73;10.05;;;21.90;99.90;;;;;;5021834;28;20218;-67
2022/06/19 02:16:17;;;;;;;15.00;11.73;;;21.80;99.90;;;;;;5023182;28;20346;-66
2022/06/19 02:18:46;;;;;;;16.85;11.27;;;21.70;99.90;;;;;;5011935;28;20179;-65
2022/06/19 02:21:37;;;;;;;13.35;11.35;;;21.70;99.90;;;;;;5019532;28;20175;-66
2022/06/19 02:24:05;;;;;;;18.75;10.65;;;21.60;99.90;;;;;;5023342;28;20184;-66
2022/06/19 02:26:31;;;;;;;16.30;10.90;;;21.60;99.90;;;;;;5021355;28;20572;-65
2022/06/19 02:28:57;;;;;;;12.27;10.55;;;21.50;99.90;;;;;;5011907;28;20175;-67
2022/06/19 02:31:22;;;;;;;14.75;10.10;;;21.50;99.90;;;;;;5019953;28;20176;-66
2022/06/19 02:33:52;;;;;;;14.27;11.23;;;21.50;99.90;;;;;;5031284;28;20167;-65
2022/06/19 02:36:45;;;;;;;16.63;11.05;;;21.40;99.90;;;;;;5027566;28;20211;-65
2022/06/19 02:39:22;;;;;;;17.90;12.75;;;21.20;99.90;;;;;;5040669;28;20183;-65
2022/06/19 02:42:11;;;;;;;14.43;10.82;;;21.10;99.90;;;;;;5051399;28;20181;-66
2022/06/19 02:44:39;;;;;;;18.10;12.10;;;21.10;99.90;;;;;;5050867;28;20268;-66
2022/06/19 02:47:06;;;;;;;13.07;10.73;;;21.00;99.90;;;;;;5037872;28;20332;-66
2022/06/19 02:49:32;;;;;;;13.23;11.68;;;21.00;99.90;;;;;;5031247;28;20178;-64
2022/06/19 02:51:58;;;;;;;13.13;11.80;;;20.80;99.90;;;;;;5021110;28;20184;-64
2022/06/19 02:54:23;;;;;;;12.05;10.55;;;20.70;99.90;;;;;;5011436;28;20340;-66
2022/06/19 02:56:50;;;;;;;9.63;8.60;;;20.60;99.90;;;;;;5019761;28;20250;-64
2022/06/19 02:59:15;;;;;;;11.82;8.93;;;20.30;99.90;;;;;;5031412;28;20172;-65
2022/06/19 03:01:41;;;;;;;9.13;8.27;;;20.20;99.90;;;;;;5024348;28;20180;-65
2022/06/19 03:04:16;;;;;;;11.43;7.67;;;20.00;99.90;;;;;;5011572;28;20609;-67
2022/06/19 03:06:42;;;;;;;8.73;7.93;;;19.80;99.90;;;;;;5017533;28;20191;-66
2022/06/19 03:09:07;;;;;;;12.17;7.33;;;19.60;99.90;;;;;;5029249;28;20168;-65
2022/06/19 03:11:33;;;;;;;7.93;6.63;;;19.60;99.90;;;;;;5011403;28;20596;-67
2022/06/19 03:13:59;;;;;;;7.13;6.53;;;19.40;99.90;;;;;;5011166;28;20259;-66
2022/06/19 03:16:24;;;;;;;6.77;6.27;;;19.30;99.90;;;;;;5030878;28;20697;-66
2022/06/19 03:18:50;;;;;;;6.67;6.17;;;19.20;99.90;;;;;;5031051;28;20210;-66
2022/06/19 03:21:16;;;;;;;6.60;6.00;;;19.00;99.90;;;;;;5029583;28;20238;-67
2022/06/19 03:23:41;;;;;;;8.17;5.97;;;18.80;99.90;;;;;;5018008;28;20191;-66
2022/06/19 03:26:07;;;;;;;6.27;5.77;;;18.60;99.90;;;;;;5011206;28;20200;-66
2022/06/19 03:28:32;;;;;;;6.33;5.73;;;18.60;99.90;;;;;;5021803;28;20179;-66
2022/06/19 03:30:58;;;;;;;6.00;5.47;;;18.40;99.90;;;;;;5031062;28;20176;-65
2022/06/19 03:33:24;;;;;;;7.30;6.60;;;18.30;99.90;;;;;;5021486;28;20183;-64
2022/06/19 03:35:53;;;;;;;7.70;5.60;;;18.20;99.90;;;;;;5010991;28;20215;-65
2022/06/19 03:38:20;;;;;;;5.97;5.27;;;18.20;99.90;;;;;;5018930;28;20187;-66
2022/06/19 03:40:46;;;;;;;5.57;5.07;;;18.10;99.90;;;;;;5030918;28;20183;-66
2022/06/19 03:43:12;;;;;;;6.70;5.63;;;18.00;99.90;;;;;;5018562;28;20180;-66
2022/06/19 03:45:38;;;;;;;7.23;6.40;;;17.80;99.90;;;;;;5014330;28;20196;-66
2022/06/19 03:48:04;;;;;;;6.70;5.90;;;17.80;99.90;;;;;;5025706;28;20211;-66
2022/06/19 03:50:29;;;;;;;6.70;6.00;;;17.80;99.90;;;;;;5034157;28;20203;-65
2022/06/19 03:52:55;;;;;;;8.83;5.93;;;17.70;99.90;;;;;;5023977;28;20641;-65
2022/06/19 03:55:21;;;;;;;6.80;6.30;;;17.50;99.90;;;;;;5026424;28;20195;-66
2022/06/19 03:57:47;;;;;;;6.83;6.10;;;17.50;99.90;;;;;;5025862;28;20207;-66
2022/06/19 04:00:16;;;;;;;9.27;6.47;;;17.50;99.90;;;;;;5014640;28;20176;-66
2022/06/19 04:02:43;;;;;;;10.67;6.10;;;17.50;99.90;;;;;;5021235;28;20183;-65
2022/06/19 04:05:13;;;;;;;8.40;5.37;;;17.50;99.90;;;;;;5033792;28;20188;-64
2022/06/19 04:07:44;;;;;;;6.90;6.20;;;17.50;99.90;;;;;;5027455;28;20207;-66
2022/06/19 04:10:10;;;;;;;8.63;6.60;;;17.30;99.90;;;;;;5028716;28;20537;-65
2022/06/19 04:12:35;;;;;;;10.57;5.97;;;17.20;99.90;;;;;;5028539;28;20195;-64
2022/06/19 04:15:01;;;;;;;7.87;5.67;;;17.10;99.90;;;;;;5013919;28;20196;-65
2022/06/19 04:17:27;;;;;;;6.00;5.00;;;17.10;99.90;;;;;;5017659;28;20180;-65
2022/06/19 04:19:53;;;;;;;8.87;5.30;;;17.10;99.90;;;;;;5033582;28;20249;-65
2022/06/19 04:22:18;;;;;;;9.73;5.40;;;17.10;99.90;;;;;;5031957;28;20258;-65
2022/06/19 04:24:44;;;;;;;6.87;5.13;;;17.10;99.90;;;;;;5013767;28;20270;-66
2022/06/19 04:27:10;;;;;;;7.70;4.90;;;17.00;99.90;;;;;;5015072;28;20211;-64
2022/06/19 04:29:36;;;;;;;9.17;6.50;;;17.00;99.90;;;;;;5014291;28;20251;-64
2022/06/19 04:32:01;;;;;;;6.93;5.00;;;17.10;99.90;;;;;;5028464;28;20242;-65
2022/06/19 04:34:27;;;;;;;10.07;4.97;;;17.10;99.90;;;;;;5033144;28;20186;-66
2022/06/19 04:36:52;;;;;;;7.53;5.20;;;17.10;99.90;;;;;;5021152;28;20180;-65
2022/06/19 04:39:18;;;;;;;12.83;5.53;;;17.30;99.90;;;;;;5013771;28;20230;-66
2022/06/19 04:41:44;;;;;;;6.00;5.40;;;17.50;99.90;;;;;;5014738;28;20179;-66
2022/06/19 04:44:15;;;;;;;8.83;5.90;;;17.70;99.90;;;;;;5013612;28;20168;-67
2022/06/19 04:46:41;;;;;;;6.10;5.40;;;18.00;99.90;;;;;;5023262;28;20714;-65
2022/06/19 04:49:07;;;;;;;8.33;5.60;;;18.10;99.90;;;;;;5033325;28;20163;-66
2022/06/19 04:51:33;;;;;;;11.20;5.37;;;18.00;99.90;;;;;;5024575;28;20645;-66
2022/06/19 04:53:59;;;;;;;7.73;4.93;;;17.80;99.90;;;;;;5012840;28;20303;-66
2022/06/19 04:56:24;;;;;;;9.10;5.10;;;17.80;99.90;;;;;;5014054;28;20204;-65
2022/06/19 04:58:51;;;;;;;8.83;6.10;;;17.80;99.90;;;;;;5013329;28;20176;-66
2022/06/19 05:01:25;;;;;;;7.30;5.80;;;17.80;99.90;;;;;;5014760;28;20188;-66
2022/06/19 05:03:54;;;;;;;10.70;5.60;;;17.90;99.90;;;;;;5013134;28;20195;-64
2022/06/19 05:06:20;;;;;;;9.50;5.40;;;18.20;99.90;;;;;;5020402;28;20211;-66
2022/06/19 05:08:45;;;;;;;9.40;4.67;;;18.40;99.90;;;;;;5032964;28;20190;-66
2022/06/19 05:11:12;;;;;;;9.60;5.50;;;18.30;99.90;;;;;;5026957;28;20269;-66
2022/06/19 05:13:38;;;;;;;8.90;4.97;;;18.00;99.90;;;;;;5012983;28;20204;-66
2022/06/19 05:16:09;;;;;;;8.40;5.77;;;17.90;99.90;;;;;;5020674;28;20701;-64
2022/06/19 05:18:35;;;;;;;7.60;5.10;;;18.00;99.90;;;;;;5032757;28;20174;-64
2022/06/19 05:21:04;;;;;;;12.57;5.20;;;18.10;99.90;;;;;;5025256;28;20176;-65
2022/06/19 05:23:31;;;;;;;10.53;5.93;;;18.20;99.90;;;;;;5013034;28;20184;-66
2022/06/19 05:26:22;;;;;;;6.20;5.40;;;18.30;99.90;;;;;;5032759;28;20242;-64
2022/06/19 05:28:50;;;;;;;12.30;5.20;;;18.30;99.90;;;;;;5029896;28;20194;-64
2022/06/19 05:31:16;;;;;;;10.80;5.67;;;18.30;99.90;;;;;;5012990;28;20276;-64
2022/06/19 05:33:42;;;;;;;10.27;5.70;;;18.50;99.90;;;;;;5025104;28;20504;-66
2022/06/19 05:36:08;;;;;;;13.03;5.40;;;18.80;99.90;;;;;;5032425;28;20238;-65
2022/06/19 05:38:34;;;;;;;14.73;6.57;;;19.00;99.90;;;;;;5020621;28;20218;-65
2022/06/19 05:41:00;;;;;;;10.30;5.43;;;19.20;99.90;;;;;;5012679;28;20175;-66
2022/06/19 05:43:29;;;;;;;8.20;5.00;;;19.40;99.90;;;;;;5022081;28;20175;-67
2022/06/19 05:45:56;;;;;;;9.13;5.70;;;19.80;99.90;;;;;;5032117;28;20603;-66
2022/06/19 05:48:23;;;;;;;6.70;5.93;;;20.20;99.90;;;;;;5022549;28;20257;-66
2022/06/19 05:51:05;;;;;;;10.52;4.57;;;20.60;99.90;;;;;;5012540;28;20176;-66
2022/06/19 05:53:35;;;;;;;6.43;4.75;;;20.80;99.90;;;;;;5021388;28;20183;-64
2022/06/19 05:56:01;;;;;;;5.85;4.05;;;20.70;99.90;;;;;;5032131;28;20198;-66
2022/06/19 05:58:27;;;;;;;5.22;4.72;;;20.40;99.90;;;;;;5023570;28;20262;-64
2022/06/19 06:00:53;;;;;;;9.38;5.20;;;20.40;99.90;;;;;;5012180;28;20255;-65
2022/06/19 06:03:20;;;;;;;7.47;5.57;;;20.40;99.90;;;;;;5023938;28;20648;-65
2022/06/19 06:05:46;;;;;;;11.55;5.85;;;20.30;99.90;;;;;;5031531;28;20573;-64
2022/06/19 06:08:14;;;;;;;11.73;4.70;;;20.40;99.90;;;;;;5021096;28;20204;-65
2022/06/19 06:10:40;;;;;;;8.35;5.10;;;20.60;99.90;;;;;;5012999;28;20238;-66
2022/06/19 06:13:06;;;;;;;7.22;5.28;;;20.70;99.90;;;;;;5031962;28;20250;-65
2022/06/19 06:15:32;;;;;;;13.18;5.20;;;20.70;99.90;;;;;;5031483;28;20211;-65
2022/06/19 06:17:59;;;;;;;8.85;4.70;;;21.00;99.90;;;;;;5031217;28;20175;-67
2022/06/19 06:20:25;;;;;;;6.53;4.60;;;21.00;99.90;;;;;;5031921;28;20183;-66
2022/06/19 06:22:50;;;;;;;9.00;4.50;;;21.10;99.90;;;;;;5013368;28;20555;-66
2022/06/19 06:25:16;;;;;;;8.75;4.50;;;21.40;99.90;;;;;;5011624;28;20235;-67
2022/06/19 06:27:41;;;;;;;7.70;4.57;;;22.00;99.90;;;;;;5028037;28;20207;-66
2022/06/19 06:30:07;;;;;;;6.90;3.90;;;22.40;99.90;;;;;;5030682;28;20179;-67
2022/06/19 06:32:33;;;;;;;6.68;4.65;;;23.00;99.90;;;;;;5015608;28;20187;-67
2022/06/19 06:34:59;;;;;;;10.50;4.95;;;23.20;99.90;;;;;;5016019;28;20663;-66
2022/06/19 06:37:25;;;;;;;6.63;4.43;;;23.80;99.90;;;;;;5011810;28;20180;-67
2022/06/19 06:39:50;;;;;;;10.00;4.07;;;24.20;99.90;;;;;;5024036;28;20179;-67
2022/06/19 06:42:16;;;;;;;11.45;3.85;;;24.30;99.90;;;;;;5035658;28;20179;-66
2022/06/19 06:44:41;;;;;;;8.77;4.55;;;24.80;99.90;;;;;;5045423;28;20195;-67
2022/06/19 06:47:07;;;;;;;9.05;4.70;;;25.20;99.90;;;;;;5033036;28;20219;-66
2022/06/19 06:49:33;;;;;;;8.63;3.97;;;25.20;99.90;;;;;;5026843;28;20188;-67
2022/06/19 06:51:59;;;;;;;7.00;4.45;;;25.10;99.90;;;;;;5026688;28;20188;-66
2022/06/19 06:54:24;;;;;;;10.88;4.38;;;25.00;99.90;;;;;;5042336;28;20645;-65
2022/06/19 06:56:50;;;;;;;8.55;4.63;;;25.00;99.90;;;;;;5037052;28;20187;-66
2022/06/19 06:59:16;;;;;;;4.68;3.90;;;25.20;99.90;;;;;;5018548;28;20180;-65
2022/06/19 07:01:41;;;;;;;6.40;4.50;;;25.10;99.90;;;;;;5042556;28;20690;-65
2022/06/19 07:04:08;;;;;;;9.95;4.60;;;24.90;99.90;;;;;;5018283;28;20569;-65
2022/06/19 07:06:34;;;;;;;8.10;4.10;;;24.60;99.90;;;;;;5030630;28;20246;-65
2022/06/19 07:09:00;;;;;;;8.52;4.30;;;24.50;99.90;;;;;;5029200;28;20631;-66
2022/06/19 07:11:30;;;;;;;9.50;3.83;;;24.30;99.90;;;;;;5030791;28;20237;-66
2022/06/19 07:13:56;;;;;;;9.68;5.80;;;24.40;99.90;;;;;;5011185;28;20172;-65
2022/06/19 07:16:22;;;;;;;6.97;4.00;;;24.20;99.90;;;;;;5025138;28;20218;-65
2022/06/19 07:18:47;;;;;;;7.78;4.22;;;24.10;99.90;;;;;;5022943;28;20176;-65
2022/06/19 07:21:13;;;;;;;11.63;4.38;;;23.90;99.90;;;;;;5025171;28;20179;-65
2022/06/19 07:23:39;;;;;;;8.23;4.40;;;23.40;99.90;;;;;;5029565;28;20586;-65
2022/06/19 07:26:13;;;;;;;10.82;5.28;;;23.10;99.90;;;;;;5015513;28;20207;-65
2022/06/19 07:28:41;;;;;;;6.30;4.53;;;22.70;99.90;;;;;;5014614;28;20176;-66
2022/06/19 07:31:06;;;;;;;10.45;5.05;;;22.70;99.90;;;;;;5026978;28;20724;-66
2022/06/19 07:33:34;;;;;;;7.93;4.70;;;22.40;99.90;;;;;;5023181;28;20207;-66
2022/06/19 07:36:00;;;;;;;11.80;5.50;;;21.60;99.90;;;;;;5014827;28;20618;-66
2022/06/19 07:38:25;;;;;;;13.27;5.00;;;21.30;99.90;;;;;;5033692;28;20298;-66
2022/06/19 07:40:51;;;;;;;8.60;5.15;;;21.20;99.90;;;;;;5023235;28;20227;-66
2022/06/19 07:43:17;;;;;;;10.48;5.03;;;21.20;99.90;;;;;;5032329;28;20191;-66
2022/06/19 07:45:42;;;;;;;8.52;5.05;;;20.90;99.90;;;;;;5028632;28;20354;-66
2022/06/19 07:50:56;;;;;;;10.02;5.18;;;21.20;99.90;;;;;;5014869;28;20245;-65
2022/06/19 07:53:22;;;;;;;7.20;4.72;;;21.10;99.90;;;;;;5029863;28;20269;-66
2022/06/19 07:55:48;;;;;;;6.10;4.40;;;21.40;99.90;;;;;;5033821;28;20216;-65
2022/06/19 07:58:13;;;;;;;10.60;5.00;;;22.00;99.90;;;;;;5030661;28;20183;-66
2022/06/19 08:00:39;;;;;;;9.65;4.65;;;22.40;99.90;;;;;;5015546;28;20307;-66
2022/06/19 08:03:05;;;;;;;4.20;3.72;;;22.60;99.90;;;;;;5016111;28;20191;-64
2022/06/19 08:05:34;;;;;;;8.55;4.32;;;22.60;99.90;;;;;;5029251;28;20675;-66
2022/06/19 08:08:03;;;;;;;12.30;4.10;;;22.90;99.90;;;;;;5031874;28;20218;-65
2022/06/19 08:10:36;;;;;;;9.55;3.70;;;23.30;99.90;;;;;;5021907;28;20179;-66
2022/06/19 08:13:02;;;;;;;6.72;3.65;;;23.90;99.90;;;;;;5053756;28;20174;-65
2022/06/19 08:15:29;;;;;;;9.07;3.85;;;24.20;99.90;;;;;;5042115;28;20208;-65
2022/06/19 08:17:55;;;;;;;9.75;3.92;;;24.30;99.90;;;;;;5025454;28;20654;-65
2022/06/19 08:20:22;;;;;;;7.63;3.80;;;24.10;99.90;;;;;;5033812;28;20194;-66
2022/06/19 08:22:48;;;;;;;9.75;4.57;;;24.10;99.90;;;;;;5029210;28;20663;-65
2022/06/19 08:25:16;;;;;;;7.53;3.95;;;24.30;99.90;;;;;;5013555;28;20199;-65
2022/06/19 08:27:43;;;;;;;9.00;3.78;;;24.50;99.90;;;;;;5016256;28;20204;-66
2022/06/19 08:30:36;;;;;;;7.07;4.00;;;24.70;99.90;;;;;;5024509;28;20189;-65
2022/06/19 08:33:03;;;;;;;6.78;4.18;;;24.30;99.90;;;;;;5018505;28;20187;-68
2022/06/19 08:35:32;;;;;;;6.80;4.78;;;23.50;99.90;;;;;;5032889;28;20207;-66
2022/06/19 08:38:04;;;;;;;9.75;4.60;;;23.10;99.90;;;;;;5025282;28;20223;-66
2022/06/19 08:41:01;;;;;;;7.57;4.45;;;23.20;99.90;;;;;;5013675;28;20168;-66
2022/06/19 08:43:45;;;;;;;9.63;4.60;;;23.40;99.90;;;;;;5014566;28;20661;-65
2022/06/19 08:46:29;;;;;;;9.55;4.15;;;23.90;99.90;;;;;;5013414;28;20689;-66
2022/06/19 08:49:17;;;;;;;8.65;4.40;;;23.70;99.90;;;;;;5028311;28;20175;-67
2022/06/19 08:52:04;;;;;;;8.65;4.10;;;23.50;99.90;;;;;;5032978;28;20175;-66
2022/06/19 08:54:54;;;;;;;7.65;4.07;;;23.90;99.90;;;;;;5013664;28;20200;-66
2022/06/19 08:57:41;;;;;;;5.78;4.03;;;24.10;99.90;;;;;;5013875;28;20173;-66
2022/06/19 09:00:17;;;;;;;7.18;4.47;;;23.50;99.90;;;;;;5033167;28;20630;-65
2022/06/19 09:02:57;;;;;;;7.35;3.83;;;22.90;99.90;;;;;;5029263;28;20255;-66
2022/06/19 09:05:47;;;;;;;6.60;4.03;;;22.90;99.90;;;;;;5015405;28;20207;-66
2022/06/19 09:08:34;;;;;;;6.28;4.53;;;23.00;99.90;;;;;;5033075;28;20234;-65
2022/06/19 09:11:36;;;;;;;8.93;4.35;;;23.20;99.90;;;;;;5025570;28;20211;-65
2022/06/19 09:14:25;;;;;;;13.00;4.47;;;23.40;99.90;;;;;;5012914;28;20623;-66
2022/06/19 09:17:08;;;;;;;6.07;3.80;;;23.50;99.90;;;;;;5026439;28;20187;-66
2022/06/19 09:20:06;;;;;;;7.75;3.92;;;23.30;99.90;;;;;;5032664;28;20262;-65
2022/06/19 09:23:05;;;;;;;7.80;4.00;;;23.40;99.90;;;;;;5013901;28;20535;-65
2022/06/19 09:25:34;;;;;;;8.80;4.38;;;23.60;99.90;;;;;;5025516;28;20195;-65
2022/06/19 09:28:09;;;;;;;9.57;4.32;;;23.80;99.90;;;;;;5032512;28;20285;-65
2022/06/19 09:30:54;;;;;;;10.20;4.32;;;24.10;99.90;;;;;;5019095;28;20180;-66
2022/06/19 09:33:25;;;;;;;6.35;4.20;;;24.60;99.90;;;;;;5014186;28;20172;-66
2022/06/19 09:36:01;;;;;;;7.80;4.20;;;24.80;99.90;;;;;;5029585;28;20219;-67
2022/06/19 09:38:44;;;;;;;7.78;4.10;;;24.80;99.90;;;;;;5031938;28;20238;-67
2022/06/19 09:41:17;;;;;;;8.50;4.50;;;24.80;99.90;;;;;;5017477;28;20176;-68
2022/06/19 09:43:46;;;;;;;9.60;4.30;;;25.30;99.90;;;;;;5016136;28;20179;-66
2022/06/19 09:46:18;;;;;;;10.10;4.47;;;25.90;99.90;;;;;;5032071;28;20191;-66
2022/06/19 09:49:31;;;;;;;6.55;4.35;;;26.40;99.90;;;;;;5028953;28;20176;-66
2022/06/19 09:52:10;;;;;;;12.20;4.30;;;26.40;99.90;;;;;;4997237;28;20195;-67
2022/06/19 09:54:42;;;;;;;4.97;3.30;;;27.00;99.90;;;;;;5030724;28;20209;-67
2022/06/19 09:57:16;;;;;;;6.72;4.22;;;27.80;99.90;;;;;;5031907;28;20171;-67
2022/06/19 09:59:53;;;;;;;7.65;4.25;;;28.10;99.90;;;;;;5022580;28;20176;-67
2022/06/19 10:03:01;;;;;;;6.50;3.90;;;28.10;99.90;;;;;;5012203;28;20176;-68
2022/06/19 10:05:39;;;;;;;7.43;3.90;;;28.30;99.90;;;;;;5021515;28;20215;-67
2022/06/19 10:08:23;;;;;;;7.15;3.95;;;27.90;99.90;;;;;;5029683;28;20199;-68
2022/06/19 10:10:51;;;;;;;6.85;4.38;;;27.50;99.90;;;;;;5031042;28;20183;-67
2022/06/19 10:13:19;;;;;;;6.45;4.05;;;26.80;99.90;;;;;;5031798;28;20577;-68
2022/06/19 10:15:47;;;;;;;5.18;4.65;;;25.80;99.90;;;;;;5014914;28;20531;-67
2022/06/19 10:18:35;;;;;;;9.75;5.32;;;24.80;99.90;;;;;;5012219;28;20202;-67
2022/06/19 10:21:06;;;;;;;8.98;5.45;;;23.80;99.90;;;;;;5029874;28;20524;-66
2022/06/19 10:23:52;;;;;;;12.30;5.53;;;22.90;99.90;;;;;;5031217;28;20211;-66
2022/06/19 10:26:36;;;;;;;11.60;5.65;;;22.40;99.90;;;;;;5031356;28;20290;-65
2022/06/19 10:29:18;;;;;;;11.27;6.18;;;22.00;99.90;;;;;;5013967;28;20187;-67
2022/06/19 10:31:55;;;;;;;11.63;5.53;;;22.10;99.90;;;;;;5011794;28;20183;-66
2022/06/19 10:34:23;;;;;;;11.93;5.68;;;22.40;99.90;;;;;;5030294;28;20178;-65
2022/06/19 10:37:04;;;;;;;9.93;5.13;;;22.90;99.90;;;;;;5031814;28;20546;-65
2022/06/19 10:40:03;;;;;;;10.40;4.70;;;23.90;99.90;;;;;;5011534;28;20563;-68
2022/06/19 10:42:45;;;;;;;12.90;5.22;;;24.90;99.90;;;;;;5012732;28;20176;-67
2022/06/19 10:45:35;;;;;;;7.88;4.38;;;26.10;99.90;;;;;;5039344;28;20317;-67
2022/06/19 10:48:13;;;;;;;8.77;4.75;;;27.30;99.90;;;;;;5051396;28;20202;-66
2022/06/19 10:50:45;;;;;;;11.93;5.30;;;28.10;99.90;;;;;;5051027;28;20205;-67
2022/06/19 10:53:20;;;;;;;11.15;5.22;;;28.60;99.90;;;;;;5039325;28;20192;-66
2022/06/19 10:55:55;;;;;;;11.98;5.30;;;28.90;99.90;;;;;;5015313;28;20195;-66
2022/06/19 10:58:26;;;;;;;10.43;5.63;;;28.40;99.90;;;;;;5022664;28;20206;-66
2022/06/19 11:00:55;;;;;;;11.70;4.90;;;27.90;99.90;;;;;;5035173;28;20218;-66
2022/06/19 11:06:35;;;;;;;10.02;5.13;;;26.90;99.90;;;;;;5015482;28;20311;-67
2022/06/19 11:09:05;;;;;;;11.07;4.60;;;27.40;99.90;;;;;;5026581;28;20182;-65
2022/06/19 11:11:34;;;;;;;5.45;4.60;;;27.80;99.90;;;;;;5035088;28;20167;-66
2022/06/19 11:14:10;;;;;;;11.10;5.05;;;27.60;99.90;;;;;;5032533;28;20172;-66
2022/06/19 11:16:53;;;;;;;8.77;5.40;;;27.50;99.90;;;;;;5033718;28;20183;-66
2022/06/19 11:19:40;;;;;;;8.35;5.10;;;26.90;99.90;;;;;;5022323;28;20502;-67
2022/06/19 11:22:39;;;;;;;8.68;5.43;;;27.00;99.90;;;;;;5015320;28;20550;-66
2022/06/19 11:25:20;;;;;;;10.75;5.18;;;27.00;99.90;;;;;;5015120;28;20192;-67
2022/06/19 11:27:59;;;;;;;11.05;5.25;;;27.20;99.90;;;;;;5018021;28;20214;-67
2022/06/19 11:30:48;;;;;;;7.47;4.90;;;27.50;99.90;;;;;;5034939;28;20168;-66
2022/06/19 11:33:27;;;;;;;11.13;5.35;;;27.90;99.90;;;;;;5015095;28;20168;-67
2022/06/19 11:35:56;;;;;;;13.30;5.32;;;28.00;99.90;;;;;;5016700;28;20204;-66
2022/06/19 11:38:38;;;;;;;12.15;4.80;;;28.30;99.90;;;;;;5034852;28;20171;-66
2022/06/19 11:41:20;;;;;;;9.90;5.20;;;28.20;99.90;;;;;;5031969;28;20834;-67
2022/06/19 11:43:46;;;;;;;9.30;5.18;;;28.00;99.90;;;;;;5014740;28;20191;-66
2022/06/19 11:46:19;;;;;;;7.80;4.88;;;28.10;99.90;;;;;;5027197;28;20204;-66
2022/06/19 11:48:45;;;;;;;6.63;4.93;;;27.70;99.90;;;;;;5034455;28;20786;-65
2022/06/19 11:51:28;;;;;;;7.65;4.45;;;27.90;99.90;;;;;;5031947;28;20271;-66
2022/06/19 11:53:57;;;;;;;7.47;4.90;;;27.90;99.90;;;;;;5014391;28;20180;-66
2022/06/19 11:56:36;;;;;;;9.38;5.13;;;27.90;99.90;;;;;;5015744;28;20184;-65
2022/06/19 11:59:05;;;;;;;9.68;5.18;;;27.90;99.90;;;;;;5014759;28;20299;-68
2022/06/19 12:01:36;;;;;;;8.23;4.78;;;28.20;99.90;;;;;;5025910;28;20172;-66
2022/06/19 12:04:05;;;;;;;13.93;5.22;;;28.10;99.90;;;;;;5025821;28;20263;-67
2022/06/19 12:06:44;;;;;;;11.10;4.68;;;28.10;99.90;;;;;;5014022;28;20203;-66
2022/06/19 12:09:22;;;;;;;12.15;4.78;;;28.10;99.90;;;;;;5021996;28;20172;-67
2022/06/19 12:11:59;;;;;;;9.55;5.25;;;27.60;99.90;;;;;;5034091;28;20210;-66
2022/06/19 12:14:34;;;;;;;9.75;5.68;;;27.60;99.90;;;;;;5024531;28;20170;-66
2022/06/19 12:17:32;;;;;;;8.93;4.97;;;27.80;99.90;;;;;;5014006;28;20658;-66
2022/06/19 12:20:07;;;;;;;7.03;4.22;;;28.20;99.90;;;;;;5012794;28;20674;-66
2022/06/19 12:23:03;;;;;;;8.13;4.47;;;27.90;99.90;;;;;;5021107;28;20180;-67
2022/06/19 12:25:31;;;;;;;10.32;4.90;;;27.30;99.90;;;;;;5014568;28;20203;-66
2022/06/19 12:28:22;;;;;;;11.63;4.00;;;26.90;99.90;;;;;;5014282;28;20231;-67
2022/06/19 12:31:11;;;;;;;6.15;4.00;;;26.70;99.90;;;;;;5024699;28;20187;-66
2022/06/19 12:34:04;;;;;;;8.07;4.60;;;26.30;99.90;;;;;;5033246;28;20701;-67
2022/06/19 12:36:34;;;;;;;6.25;4.15;;;26.50;99.90;;;;;;5016398;28;20740;-65
2022/06/19 12:39:00;;;;;;;7.82;4.90;;;26.40;99.90;;;;;;5013938;28;20616;-67
2022/06/19 12:41:39;;;;;;;8.65;4.10;;;26.50;99.90;;;;;;5028840;28;20176;-67
2022/06/19 12:44:45;;;;;;;12.73;4.22;;;26.40;99.90;;;;;;5033238;28;20163;-67
2022/06/19 12:47:55;;;;;;;5.22;4.05;;;26.50;99.90;;;;;;5013805;28;20214;-67
2022/06/19 12:50:50;;;;;;;10.35;4.78;;;26.70;99.90;;;;;;5020156;28;20524;-67
2022/06/19 12:53:27;;;;;;;9.02;4.32;;;27.10;99.90;;;;;;5025660;28;20648;-68
2022/06/19 12:56:17;;;;;;;12.73;4.55;;;27.20;99.90;;;;;;5013483;28;20204;-68
2022/06/19 12:59:18;;;;;;;12.45;5.10;;;27.20;99.90;;;;;;5023077;28;20182;-67
2022/06/19 13:02:13;;;;;;;9.68;4.60;;;27.20;99.90;;;;;;5028667;28;20192;-67
2022/06/19 13:05:13;;;;;;;9.55;4.13;;;27.30;99.90;;;;;;5015785;28;20188;-68
2022/06/19 13:07:41;;;;;;;11.23;4.28;;;26.90;99.90;;;;;;4999568;28;20266;-66
2022/06/19 13:10:07;;;;;;;10.40;4.00;;;27.00;99.90;;;;;;5013774;28;20255;-66
2022/06/19 13:13:03;;;;;;;12.60;4.40;;;27.10;99.90;;;;;;5013195;28;20259;-66